Startpagina
METAR-TAF:

METAR-TAF

Vliegvelden :

Barquisimeto, Venezuela

breedte: 10-04N, lengte: 069-19W, hoogte: 613 m

Actueel weer

Dit bericht is 1 uur en het 42 minuten geleden gemaakt, om 18:00 UTC
Wind 7 kt uit het oosten
Temperatuur 27°C
Vochtigheid 62%
Druk 1015 hPa
Zicht 10 km of meer
Geheel bewolkt op 1600 ft

METAR: SVBM 171800Z 09007KT 9999 OVC016 27/19 Q1015

Tijdstip: 15:42 (19:42 UTC)


TAF: ontbreekt

Waarnemingen en weersverwachtingen van meer dan 4000 vliegvelden (METAR en TAF).

De beschikbare stations zijn de gele en rode punten op de kaart.

Ga met uw muis naar het station om de naam te zien.

Klik dan om waarnemingen en weersverwachtingen te zien.

kaart wijzigen: klik op de groene knoppen met een zwart kruis om in te zoomen, op de groene knop met een streepje om uit te zoomen of op de groene pijlen voor aangrenzende kaarten.


METAR-TAF: